createdAt,value
2022-09-26T06:01:41.056Z,8.90
2022-09-26T06:04:57.076Z,8.95
2022-09-26T06:08:24.808Z,9.00
2022-09-26T06:11:58.357Z,9.05
2022-09-26T06:15:00.766Z,9.10
2022-09-26T06:18:04.752Z,9.20
2022-09-26T06:21:09.615Z,9.26
2022-09-26T06:24:13.153Z,9.27
2022-09-26T06:27:16.243Z,9.30
2022-09-26T06:30:18.123Z,9.36
2022-09-26T06:33:21.669Z,9.47
2022-09-26T06:36:34.082Z,9.47
2022-09-26T06:39:36.871Z,9.43
2022-09-26T06:42:40.291Z,9.45
2022-09-26T06:46:03.060Z,9.45
2022-09-26T06:49:16.619Z,9.47
2022-09-26T06:52:36.000Z,9.49
2022-09-26T06:55:38.095Z,9.53
2022-09-26T06:58:39.742Z,9.56
2022-09-26T07:01:44.314Z,9.55
2022-09-26T07:05:23.312Z,9.61
2022-09-26T07:08:49.989Z,9.69
2022-09-26T07:12:13.551Z,9.76
2022-09-26T07:15:17.036Z,9.83
2022-09-26T07:18:18.581Z,9.89
2022-09-26T07:21:35.049Z,9.97
2022-09-26T07:24:49.501Z,10.01
2022-09-26T07:27:52.376Z,10.05
2022-09-26T07:30:58.784Z,10.05
2022-09-26T07:34:18.735Z,10.11
2022-09-26T07:37:21.218Z,10.31
2022-09-26T07:40:23.763Z,10.48
2022-09-26T07:43:50.263Z,10.62
2022-09-26T07:47:06.236Z,10.74
2022-09-26T07:50:16.994Z,10.84
2022-09-26T07:53:41.411Z,10.92
2022-09-26T07:57:09.118Z,11.06
2022-09-26T08:00:31.354Z,11.13
2022-09-26T08:03:55.589Z,11.20
2022-09-26T08:07:02.307Z,11.27
2022-09-26T08:10:06.541Z,11.47
2022-09-26T08:13:44.870Z,11.68
2022-09-26T08:17:14.357Z,11.78
2022-09-26T08:20:16.473Z,11.90
2022-09-26T08:23:18.125Z,11.93
2022-09-26T08:26:43.903Z,12.04
2022-09-26T08:29:56.804Z,12.02
2022-09-26T08:33:01.247Z,12.09
2022-09-26T08:36:10.273Z,12.12
2022-09-26T08:39:33.302Z,12.24
2022-09-26T08:43:35.690Z,12.31
2022-09-26T08:47:30.079Z,12.31
2022-09-26T08:50:59.306Z,12.37
2022-09-26T08:54:11.179Z,12.34
2022-09-26T08:57:39.167Z,12.31
2022-09-26T09:00:41.665Z,12.43
2022-09-26T09:03:59.979Z,12.61
2022-09-26T09:07:20.602Z,12.73
2022-09-26T09:10:42.746Z,12.71
2022-09-26T09:14:20.543Z,12.64
2022-09-26T09:18:18.281Z,12.71
2022-09-26T09:21:44.706Z,12.80
2022-09-26T09:25:43.144Z,12.78
2022-09-26T09:28:56.875Z,12.69
2022-09-26T09:32:02.278Z,12.62
2022-09-26T09:35:30.117Z,12.55
2022-09-26T09:38:39.030Z,12.53
2022-09-26T09:41:55.435Z,12.50
2022-09-26T09:45:04.018Z,12.43
2022-09-26T09:48:12.417Z,12.38
2022-09-26T09:51:40.466Z,12.34
2022-09-26T09:54:50.419Z,12.44
2022-09-26T09:58:17.228Z,12.38
2022-09-26T10:01:28.509Z,12.34
2022-09-26T10:05:00.337Z,12.36
2022-09-26T10:08:04.481Z,12.40
2022-09-26T10:11:31.826Z,12.44
2022-09-26T10:14:56.558Z,12.57
2022-09-26T10:18:26.386Z,12.71
2022-09-26T10:21:42.423Z,12.78
2022-09-26T10:24:47.170Z,12.69
2022-09-26T10:27:57.859Z,12.56
2022-09-26T10:31:08.978Z,12.44
2022-09-26T10:34:30.381Z,12.39
2022-09-26T10:37:36.149Z,12.36
2022-09-26T10:40:55.091Z,12.35
2022-09-26T10:43:59.391Z,12.32
2022-09-26T10:47:31.398Z,12.28
2022-09-26T10:50:53.261Z,12.22
2022-09-26T10:54:04.376Z,12.14
2022-09-26T10:57:12.433Z,12.06
2022-09-26T11:00:40.117Z,12.10
2022-09-26T11:04:10.224Z,12.10
2022-09-26T11:07:35.871Z,12.11
2022-09-26T11:11:15.184Z,12.28
2022-09-26T11:14:32.623Z,12.47
2022-09-26T11:17:47.920Z,12.64
2022-09-26T11:20:53.496Z,12.82
2022-09-26T11:30:48.271Z,12.86
2022-09-26T11:33:56.017Z,12.83
2022-09-26T11:41:16.516Z,12.62
2022-09-26T11:45:07.064Z,12.57
2022-09-26T11:48:43.854Z,12.49
2022-09-26T11:52:43.282Z,12.38
2022-09-26T11:56:07.880Z,12.37
2022-09-26T11:59:24.745Z,12.26
2022-09-26T12:02:35.328Z,12.29
2022-09-26T12:05:48.843Z,12.22
2022-09-26T12:08:53.209Z,12.19
2022-09-26T12:12:17.961Z,12.13
2022-09-26T12:15:31.632Z,12.21
2022-09-26T12:18:47.118Z,12.19
2022-09-26T12:22:28.441Z,12.15
2022-09-26T12:25:47.950Z,12.08
2022-09-26T12:29:06.308Z,11.96
2022-09-26T12:32:07.885Z,11.82
2022-09-26T12:35:37.437Z,11.79
2022-09-26T12:39:08.742Z,11.84
2022-09-26T12:42:35.037Z,11.84
2022-09-26T12:45:55.302Z,11.87
2022-09-26T12:49:55.066Z,11.89
2022-09-26T12:52:59.182Z,11.92
2022-09-26T12:56:23.025Z,12.02
2022-09-26T12:59:43.932Z,12.05
2022-09-26T13:03:13.525Z,12.08
2022-09-26T13:06:27.577Z,12.05
2022-09-26T13:09:38.919Z,12.02
2022-09-26T13:12:49.858Z,12.02
2022-09-26T13:15:58.000Z,11.95
2022-09-26T13:19:12.744Z,11.91
2022-09-26T13:22:34.401Z,11.89
2022-09-26T13:25:54.367Z,11.83
2022-09-26T13:29:23.306Z,11.82
2022-09-26T13:32:48.386Z,11.82
2022-09-26T13:35:52.245Z,11.77
2022-09-26T13:38:59.944Z,11.80
2022-09-26T13:42:22.614Z,11.72
2022-09-26T13:45:50.641Z,11.64
2022-09-26T13:49:02.211Z,11.59
2022-09-26T13:52:52.324Z,11.46
2022-09-26T13:56:41.221Z,11.50
2022-09-26T13:59:54.148Z,11.51
2022-09-26T14:03:14.016Z,11.61
2022-09-26T14:06:26.481Z,11.60
2022-09-26T14:09:42.052Z,11.50
2022-09-26T14:12:55.696Z,11.50
2022-09-26T14:16:28.197Z,11.42
2022-09-26T14:19:45.716Z,11.32
2022-09-26T14:22:52.595Z,11.31
2022-09-26T14:25:55.670Z,11.27
2022-09-26T14:29:25.276Z,11.23
2022-09-26T14:32:38.525Z,11.17
2022-09-26T14:35:40.105Z,11.17
2022-09-26T14:38:45.327Z,11.14
2022-09-26T14:41:46.936Z,11.15
2022-09-26T14:44:55.486Z,11.16
2022-09-26T14:48:12.838Z,11.16
2022-09-26T14:51:19.174Z,11.20
2022-09-26T14:54:31.902Z,11.12
2022-09-26T14:57:34.653Z,11.16
2022-09-26T15:00:43.333Z,11.14
2022-09-26T15:03:56.918Z,11.09
2022-09-26T15:07:03.925Z,11.06
2022-09-26T15:10:14.293Z,10.99
2022-09-26T15:13:30.875Z,11.06
2022-09-26T15:16:40.549Z,11.03
2022-09-26T15:19:49.933Z,11.04
2022-09-26T15:22:57.215Z,11.08
2022-09-26T15:26:06.052Z,11.06
2022-09-26T15:29:12.386Z,11.08
2022-09-26T15:32:19.141Z,11.04
2022-09-26T15:35:20.570Z,11.04
2022-09-26T15:38:23.822Z,11.05
2022-09-26T15:41:43.910Z,11.03
2022-09-26T15:44:54.872Z,11.03
2022-09-26T15:47:58.839Z,11.02
2022-09-26T15:51:15.688Z,11.04
2022-09-26T15:54:23.780Z,11.02
2022-09-26T15:57:28.034Z,10.98
2022-09-26T16:00:37.537Z,10.98
2022-09-26T16:03:57.320Z,10.95
2022-09-26T16:07:14.944Z,10.95
2022-09-26T16:10:28.509Z,10.95
2022-09-26T16:13:39.992Z,10.95
2022-09-26T16:16:41.653Z,10.91
2022-09-26T16:19:53.688Z,10.96
2022-09-26T16:23:03.375Z,10.98
2022-09-26T16:26:31.216Z,10.95
2022-09-26T16:29:35.373Z,10.94
2022-09-26T16:32:37.345Z,10.94
2022-09-26T16:35:47.385Z,10.93
2022-09-26T16:39:03.815Z,10.90
2022-09-26T16:42:16.969Z,10.87
2022-09-26T16:45:18.950Z,10.84
2022-09-26T16:48:38.978Z,10.82
2022-09-26T16:51:40.925Z,10.80
2022-09-26T16:54:42.647Z,10.77
2022-09-26T16:57:55.802Z,10.74
2022-09-26T17:01:15.943Z,10.73
2022-09-26T17:04:19.536Z,10.73
2022-09-26T17:07:22.849Z,10.71
2022-09-26T17:10:25.610Z,10.69
2022-09-26T17:13:32.833Z,10.65
2022-09-26T17:16:34.476Z,10.65
2022-09-26T17:19:41.164Z,10.67
2022-09-26T17:22:42.807Z,10.70
2022-09-26T17:25:48.165Z,10.65
2022-09-26T17:28:52.853Z,10.69
2022-09-26T17:31:56.031Z,10.65
2022-09-26T17:35:00.894Z,10.69
2022-09-26T17:38:03.062Z,10.64
2022-09-26T17:41:04.759Z,10.66
2022-09-26T17:44:06.411Z,10.68
2022-09-26T17:47:10.606Z,10.68
2022-09-26T17:50:23.157Z,10.69
2022-09-26T17:53:25.455Z,10.69
2022-09-26T17:56:27.176Z,10.67
2022-09-26T17:59:29.102Z,10.69
2022-09-26T20:54:46.885Z,9.46
2022-09-26T21:48:36.106Z,9.36
2022-09-26T21:55:32.012Z,9.30
2022-09-26T21:59:24.443Z,9.28
2022-09-26T22:02:28.097Z,9.27
2022-09-26T22:06:16.659Z,9.29
2022-09-26T22:09:38.246Z,9.28
2022-09-26T22:12:40.499Z,9.25
2022-09-26T22:15:42.270Z,9.23
2022-09-26T22:18:44.336Z,9.26
2022-09-26T22:21:46.229Z,9.27
2022-09-26T22:24:50.664Z,9.24
2022-09-26T22:27:52.519Z,9.24
2022-09-26T22:31:06.970Z,9.21
2022-09-26T22:34:08.991Z,9.22
2022-09-26T22:37:13.451Z,9.20
2022-09-26T22:40:18.072Z,9.20
2022-09-26T22:43:21.149Z,9.17
2022-09-26T22:46:25.925Z,9.15
2022-09-26T22:49:27.952Z,9.12
2022-09-26T22:52:31.041Z,9.14
2022-09-26T22:55:37.559Z,9.10
2022-09-26T22:58:43.950Z,9.15
2022-09-26T23:01:59.570Z,9.09
2022-09-26T23:05:04.509Z,9.09
2022-09-26T23:08:06.314Z,9.10
2022-09-26T23:11:28.657Z,9.10
2022-09-26T23:14:34.408Z,9.13
2022-09-26T23:17:37.093Z,9.12
2022-09-26T23:20:43.025Z,9.16
2022-09-26T23:23:46.528Z,9.14
2022-09-26T23:26:48.297Z,9.18
2022-09-26T23:29:50.019Z,9.19
2022-09-26T23:32:51.699Z,9.19
2022-09-26T23:35:58.041Z,9.25
2022-09-26T23:38:59.900Z,9.22
2022-09-26T23:42:02.708Z,9.23
2022-09-26T23:45:04.980Z,9.24
2022-09-26T23:48:06.677Z,9.23
2022-09-26T23:51:09.320Z,9.24
2022-09-26T23:54:11.342Z,9.26
2022-09-26T23:57:12.948Z,9.23
